sensor_id;sensor_type;location;lat;lon;timestamp;temperature;humidity
65568;DHT22;52211;50.154;8.682;2024-01-15T00:01:44;1.20;64.60
65568;DHT22;52211;50.154;8.682;2024-01-15T00:04:14;1.20;64.60
65568;DHT22;52211;50.154;8.682;2024-01-15T00:06:40;1.20;64.60
65568;DHT22;52211;50.154;8.682;2024-01-15T00:09:10;1.20;64.60
65568;DHT22;52211;50.154;8.682;2024-01-15T00:11:40;1.20;64.60
65568;DHT22;52211;50.154;8.682;2024-01-15T00:14:07;1.10;64.60
65568;DHT22;52211;50.154;8.682;2024-01-15T00:16:36;1.10;64.60
65568;DHT22;52211;50.154;8.682;2024-01-15T00:19:05;1.10;64.70
65568;DHT22;52211;50.154;8.682;2024-01-15T00:21:35;1.10;64.70
65568;DHT22;52211;50.154;8.682;2024-01-15T00:24:06;1.10;64.70
65568;DHT22;52211;50.154;8.682;2024-01-15T00:26:33;1.10;64.80
65568;DHT22;52211;50.154;8.682;2024-01-15T00:29:00;1.10;64.80
65568;DHT22;52211;50.154;8.682;2024-01-15T00:31:30;1.10;64.90
65568;DHT22;52211;50.154;8.682;2024-01-15T00:33:57;1.10;64.90
65568;DHT22;52211;50.154;8.682;2024-01-15T00:36:31;1.10;64.90
65568;DHT22;52211;50.154;8.682;2024-01-15T00:39:03;1.10;64.90
65568;DHT22;52211;50.154;8.682;2024-01-15T00:41:32;1.10;64.90
65568;DHT22;52211;50.154;8.682;2024-01-15T00:43:59;1.10;65.00
65568;DHT22;52211;50.154;8.682;2024-01-15T00:46:28;1.10;65.00
65568;DHT22;52211;50.154;8.682;2024-01-15T00:48:55;1.10;65.00
65568;DHT22;52211;50.154;8.682;2024-01-15T00:51:25;1.10;65.00
65568;DHT22;52211;50.154;8.682;2024-01-15T00:53:54;1.10;65.00
65568;DHT22;52211;50.154;8.682;2024-01-15T00:56:23;1.10;65.20
65568;DHT22;52211;50.154;8.682;2024-01-15T00:58:52;1.10;65.10
65568;DHT22;52211;50.154;8.682;2024-01-15T01:01:24;1.10;65.20
65568;DHT22;52211;50.154;8.682;2024-01-15T01:03:53;1.10;65.10
65568;DHT22;52211;50.154;8.682;2024-01-15T01:06:23;1.10;65.10
65568;DHT22;52211;50.154;8.682;2024-01-15T01:08:50;1.10;65.10
65568;DHT22;52211;50.154;8.682;2024-01-15T01:11:19;1.10;65.10
65568;DHT22;52211;50.154;8.682;2024-01-15T01:13:49;1.10;65.20
65568;DHT22;52211;50.154;8.682;2024-01-15T01:16:21;1.10;65.20
65568;DHT22;52211;50.154;8.682;2024-01-15T01:18:48;1.20;65.20
65568;DHT22;52211;50.154;8.682;2024-01-15T01:21:17;1.20;65.20
65568;DHT22;52211;50.154;8.682;2024-01-15T01:23:47;1.20;65.20
65568;DHT22;52211;50.154;8.682;2024-01-15T01:26:17;1.20;65.10
65568;DHT22;52211;50.154;8.682;2024-01-15T01:28:47;1.20;65.20
65568;DHT22;52211;50.154;8.682;2024-01-15T01:31:19;1.20;65.20
65568;DHT22;52211;50.154;8.682;2024-01-15T01:33:49;1.20;65.20
65568;DHT22;52211;50.154;8.682;2024-01-15T01:36:16;1.20;65.10
65568;DHT22;52211;50.154;8.682;2024-01-15T01:38:43;1.20;65.20
65568;DHT22;52211;50.154;8.682;2024-01-15T01:41:10;1.20;65.20
65568;DHT22;52211;50.154;8.682;2024-01-15T01:43:43;1.20;65.20
65568;DHT22;52211;50.154;8.682;2024-01-15T01:46:12;1.20;65.20
65568;DHT22;52211;50.154;8.682;2024-01-15T01:48:42;1.20;65.20
65568;DHT22;52211;50.154;8.682;2024-01-15T01:51:13;1.20;65.20
65568;DHT22;52211;50.154;8.682;2024-01-15T01:53:40;1.20;65.20
65568;DHT22;52211;50.154;8.682;2024-01-15T01:56:08;1.30;65.20
65568;DHT22;52211;50.154;8.682;2024-01-15T01:58:36;1.30;65.20
65568;DHT22;52211;50.154;8.682;2024-01-15T02:01:06;1.30;65.20
65568;DHT22;52211;50.154;8.682;2024-01-15T02:03:34;1.30;65.20
65568;DHT22;52211;50.154;8.682;2024-01-15T02:06:04;1.30;65.10
65568;DHT22;52211;50.154;8.682;2024-01-15T02:08:31;1.30;65.10
65568;DHT22;52211;50.154;8.682;2024-01-15T02:11:01;1.40;65.20
65568;DHT22;52211;50.154;8.682;2024-01-15T02:13:30;1.40;65.20
65568;DHT22;52211;50.154;8.682;2024-01-15T02:15:59;1.40;65.20
65568;DHT22;52211;50.154;8.682;2024-01-15T02:18:26;1.40;65.20
65568;DHT22;52211;50.154;8.682;2024-01-15T02:20:53;1.50;65.10
65568;DHT22;52211;50.154;8.682;2024-01-15T02:23:20;1.50;65.10
65568;DHT22;52211;50.154;8.682;2024-01-15T02:25:50;1.50;65.10
65568;DHT22;52211;50.154;8.682;2024-01-15T02:28:27;1.50;65.10
65568;DHT22;52211;50.154;8.682;2024-01-15T02:30:54;1.50;65.00
65568;DHT22;52211;50.154;8.682;2024-01-15T02:33:24;1.50;65.00
65568;DHT22;52211;50.154;8.682;2024-01-15T02:35:53;1.50;65.00
65568;DHT22;52211;50.154;8.682;2024-01-15T02:38:23;1.50;65.00
65568;DHT22;52211;50.154;8.682;2024-01-15T02:40:52;1.50;65.00
65568;DHT22;52211;50.154;8.682;2024-01-15T02:43:22;1.50;64.90
65568;DHT22;52211;50.154;8.682;2024-01-15T02:45:49;1.50;65.00
65568;DHT22;52211;50.154;8.682;2024-01-15T02:48:16;1.50;64.90
65568;DHT22;52211;50.154;8.682;2024-01-15T02:50:46;1.50;64.90
65568;DHT22;52211;50.154;8.682;2024-01-15T02:53:16;1.50;65.00
65568;DHT22;52211;50.154;8.682;2024-01-15T02:55:45;1.50;65.00
65568;DHT22;52211;50.154;8.682;2024-01-15T02:58:12;1.50;65.00
65568;DHT22;52211;50.154;8.682;2024-01-15T03:00:41;1.50;65.00
65568;DHT22;52211;50.154;8.682;2024-01-15T03:03:09;1.50;65.10
65568;DHT22;52211;50.154;8.682;2024-01-15T03:05:38;1.50;65.10
65568;DHT22;52211;50.154;8.682;2024-01-15T03:08:08;1.50;65.20
65568;DHT22;52211;50.154;8.682;2024-01-15T03:10:37;1.50;65.20
65568;DHT22;52211;50.154;8.682;2024-01-15T03:13:06;1.50;65.20
65568;DHT22;52211;50.154;8.682;2024-01-15T03:15:33;1.50;65.20
65568;DHT22;52211;50.154;8.682;2024-01-15T03:18:05;1.50;65.20
65568;DHT22;52211;50.154;8.682;2024-01-15T03:20:35;1.50;65.20
65568;DHT22;52211;50.154;8.682;2024-01-15T03:23:02;1.50;65.20
65568;DHT22;52211;50.154;8.682;2024-01-15T03:25:31;1.50;65.20
65568;DHT22;52211;50.154;8.682;2024-01-15T03:27:58;1.50;65.20
65568;DHT22;52211;50.154;8.682;2024-01-15T03:30:30;1.50;65.20
65568;DHT22;52211;50.154;8.682;2024-01-15T03:33:04;1.50;65.30
65568;DHT22;52211;50.154;8.682;2024-01-15T03:35:31;1.50;65.30
65568;DHT22;52211;50.154;8.682;2024-01-15T03:37:58;1.50;65.20
65568;DHT22;52211;50.154;8.682;2024-01-15T03:40:41;1.50;65.20
65568;DHT22;52211;50.154;8.682;2024-01-15T03:43:08;1.50;65.30
65568;DHT22;52211;50.154;8.682;2024-01-15T03:45:37;1.50;65.20
65568;DHT22;52211;50.154;8.682;2024-01-15T03:48:09;1.50;65.30
65568;DHT22;52211;50.154;8.682;2024-01-15T03:50:36;1.50;65.20
65568;DHT22;52211;50.154;8.682;2024-01-15T03:53:05;1.50;65.30
65568;DHT22;52211;50.154;8.682;2024-01-15T03:55:40;1.50;65.30
65568;DHT22;52211;50.154;8.682;2024-01-15T03:58:07;1.50;65.30
65568;DHT22;52211;50.154;8.682;2024-01-15T04:00:34;1.50;65.40
65568;DHT22;52211;50.154;8.682;2024-01-15T04:03:01;1.50;65.40
65568;DHT22;52211;50.154;8.682;2024-01-15T04:05:35;1.50;65.40
65568;DHT22;52211;50.154;8.682;2024-01-15T04:08:05;1.50;65.40
65568;DHT22;52211;50.154;8.682;2024-01-15T04:10:34;1.50;65.50
65568;DHT22;52211;50.154;8.682;2024-01-15T04:13:06;1.50;65.40
65568;DHT22;52211;50.154;8.682;2024-01-15T04:15:33;1.50;65.40
65568;DHT22;52211;50.154;8.682;2024-01-15T04:18:03;1.50;65.40
65568;DHT22;52211;50.154;8.682;2024-01-15T04:20:37;1.50;65.40
65568;DHT22;52211;50.154;8.682;2024-01-15T04:23:06;1.50;65.50
65568;DHT22;52211;50.154;8.682;2024-01-15T04:25:33;1.50;65.60
65568;DHT22;52211;50.154;8.682;2024-01-15T04:28:00;1.50;65.50
65568;DHT22;52211;50.154;8.682;2024-01-15T04:30:27;1.50;65.50
65568;DHT22;52211;50.154;8.682;2024-01-15T04:32:58;1.50;65.60
65568;DHT22;52211;50.154;8.682;2024-01-15T04:35:28;1.50;65.60
65568;DHT22;52211;50.154;8.682;2024-01-15T04:37:57;1.60;65.60
65568;DHT22;52211;50.154;8.682;2024-01-15T04:40:26;1.60;65.60
65568;DHT22;52211;50.154;8.682;2024-01-15T04:43:07;1.60;65.60
65568;DHT22;52211;50.154;8.682;2024-01-15T04:45:34;1.60;65.60
65568;DHT22;52211;50.154;8.682;2024-01-15T04:48:06;1.60;65.70
65568;DHT22;52211;50.154;8.682;2024-01-15T04:50:33;1.60;65.70
65568;DHT22;52211;50.154;8.682;2024-01-15T04:53:03;1.70;65.60
65568;DHT22;52211;50.154;8.682;2024-01-15T04:55:35;1.70;65.60
65568;DHT22;52211;50.154;8.682;2024-01-15T04:58:02;1.70;65.60
65568;DHT22;52211;50.154;8.682;2024-01-15T05:00:31;1.70;65.60
65568;DHT22;52211;50.154;8.682;2024-01-15T05:03:03;1.70;65.50
65568;DHT22;52211;50.154;8.682;2024-01-15T05:05:35;1.70;65.50
65568;DHT22;52211;50.154;8.682;2024-01-15T05:08:06;1.70;65.50
65568;DHT22;52211;50.154;8.682;2024-01-15T05:10:33;1.70;65.50
65568;DHT22;52211;50.154;8.682;2024-01-15T05:13:02;1.80;65.60
65568;DHT22;52211;50.154;8.682;2024-01-15T05:15:29;1.80;65.60
65568;DHT22;52211;50.154;8.682;2024-01-15T05:17:56;1.80;65.50
65568;DHT22;52211;50.154;8.682;2024-01-15T05:20:26;1.80;65.60
65568;DHT22;52211;50.154;8.682;2024-01-15T05:22:53;1.80;65.50
65568;DHT22;52211;50.154;8.682;2024-01-15T05:25:19;1.80;65.50
65568;DHT22;52211;50.154;8.682;2024-01-15T05:27:46;1.90;65.60
65568;DHT22;52211;50.154;8.682;2024-01-15T05:30:14;1.80;65.50
65568;DHT22;52211;50.154;8.682;2024-01-15T05:32:43;1.90;65.60
65568;DHT22;52211;50.154;8.682;2024-01-15T05:35:12;1.90;65.60
65568;DHT22;52211;50.154;8.682;2024-01-15T05:37:44;1.90;65.60
65568;DHT22;52211;50.154;8.682;2024-01-15T05:40:14;1.90;65.60
65568;DHT22;52211;50.154;8.682;2024-01-15T05:42:41;1.90;65.60
65568;DHT22;52211;50.154;8.682;2024-01-15T05:45:08;1.90;65.60
65568;DHT22;52211;50.154;8.682;2024-01-15T05:47:36;2.00;65.60
65568;DHT22;52211;50.154;8.682;2024-01-15T05:50:05;2.00;65.60
65568;DHT22;52211;50.154;8.682;2024-01-15T05:52:36;2.00;65.70
65568;DHT22;52211;50.154;8.682;2024-01-15T05:55:05;1.90;65.60
65568;DHT22;52211;50.154;8.682;2024-01-15T05:57:32;2.00;65.60
65568;DHT22;52211;50.154;8.682;2024-01-15T06:00:00;1.90;65.50
65568;DHT22;52211;50.154;8.682;2024-01-15T06:02:31;1.90;65.50
65568;DHT22;52211;50.154;8.682;2024-01-15T06:04:58;1.90;65.50
65568;DHT22;52211;50.154;8.682;2024-01-15T06:07:25;1.90;65.60
65568;DHT22;52211;50.154;8.682;2024-01-15T06:09:54;1.90;65.60
65568;DHT22;52211;50.154;8.682;2024-01-15T06:12:23;2.00;65.70
65568;DHT22;52211;50.154;8.682;2024-01-15T06:14:50;2.00;65.70
65568;DHT22;52211;50.154;8.682;2024-01-15T06:17:22;2.00;65.70
65568;DHT22;52211;50.154;8.682;2024-01-15T06:19:49;2.00;65.70
65568;DHT22;52211;50.154;8.682;2024-01-15T06:22:19;2.00;65.70
65568;DHT22;52211;50.154;8.682;2024-01-15T06:24:46;2.00;65.80
65568;DHT22;52211;50.154;8.682;2024-01-15T06:27:15;2.00;65.80
65568;DHT22;52211;50.154;8.682;2024-01-15T06:29:47;2.00;65.80
65568;DHT22;52211;50.154;8.682;2024-01-15T06:32:17;2.00;65.80
65568;DHT22;52211;50.154;8.682;2024-01-15T06:34:44;2.00;65.70
65568;DHT22;52211;50.154;8.682;2024-01-15T06:37:13;2.00;65.80
65568;DHT22;52211;50.154;8.682;2024-01-15T06:39:44;2.00;65.80
65568;DHT22;52211;50.154;8.682;2024-01-15T06:42:18;2.00;65.80
65568;DHT22;52211;50.154;8.682;2024-01-15T06:44:51;2.00;65.80
65568;DHT22;52211;50.154;8.682;2024-01-15T06:47:20;2.00;65.80
65568;DHT22;52211;50.154;8.682;2024-01-15T06:49:49;2.00;65.80
65568;DHT22;52211;50.154;8.682;2024-01-15T06:52:20;2.00;65.80
65568;DHT22;52211;50.154;8.682;2024-01-15T06:54:49;2.00;65.80
65568;DHT22;52211;50.154;8.682;2024-01-15T06:57:16;2.00;65.80
65568;DHT22;52211;50.154;8.682;2024-01-15T06:59:45;2.00;65.80
65568;DHT22;52211;50.154;8.682;2024-01-15T07:02:17;2.00;65.80
65568;DHT22;52211;50.154;8.682;2024-01-15T07:04:44;2.00;65.90
65568;DHT22;52211;50.154;8.682;2024-01-15T07:07:10;2.00;65.90
65568;DHT22;52211;50.154;8.682;2024-01-15T07:09:37;2.00;65.80
65568;DHT22;52211;50.154;8.682;2024-01-15T07:12:08;2.00;65.90
65568;DHT22;52211;50.154;8.682;2024-01-15T07:14:35;2.00;65.90
65568;DHT22;52211;50.154;8.682;2024-01-15T07:17:04;2.00;65.90
65568;DHT22;52211;50.154;8.682;2024-01-15T07:19:34;2.00;65.90
65568;DHT22;52211;50.154;8.682;2024-01-15T07:22:01;2.00;66.00
65568;DHT22;52211;50.154;8.682;2024-01-15T07:24:28;2.00;66.00
65568;DHT22;52211;50.154;8.682;2024-01-15T07:26:55;2.00;66.00
65568;DHT22;52211;50.154;8.682;2024-01-15T07:29:22;2.00;65.90
65568;DHT22;52211;50.154;8.682;2024-01-15T07:31:54;2.00;66.00
65568;DHT22;52211;50.154;8.682;2024-01-15T07:34:23;2.00;65.90
65568;DHT22;52211;50.154;8.682;2024-01-15T07:36:51;2.00;66.00
65568;DHT22;52211;50.154;8.682;2024-01-15T07:39:24;2.00;66.00
65568;DHT22;52211;50.154;8.682;2024-01-15T07:41:52;2.00;66.00
65568;DHT22;52211;50.154;8.682;2024-01-15T07:44:19;2.00;66.10
65568;DHT22;52211;50.154;8.682;2024-01-15T07:46:49;2.00;66.10
65568;DHT22;52211;50.154;8.682;2024-01-15T07:49:16;2.00;66.10
65568;DHT22;52211;50.154;8.682;2024-01-15T07:51:46;2.00;66.10
65568;DHT22;52211;50.154;8.682;2024-01-15T07:54:13;2.00;66.10
65568;DHT22;52211;50.154;8.682;2024-01-15T07:57:02;2.00;66.10
65568;DHT22;52211;50.154;8.682;2024-01-15T07:59:32;2.10;66.30
65568;DHT22;52211;50.154;8.682;2024-01-15T08:02:02;2.10;66.10
65568;DHT22;52211;50.154;8.682;2024-01-15T08:04:34;2.10;66.20
65568;DHT22;52211;50.154;8.682;2024-01-15T08:07:05;2.10;66.20
65568;DHT22;52211;50.154;8.682;2024-01-15T08:09:36;2.10;66.20
65568;DHT22;52211;50.154;8.682;2024-01-15T08:12:06;2.20;66.20
65568;DHT22;52211;50.154;8.682;2024-01-15T08:14:37;2.20;66.30
65568;DHT22;52211;50.154;8.682;2024-01-15T08:17:06;2.20;66.30
65568;DHT22;52211;50.154;8.682;2024-01-15T08:19:35;2.20;66.30
65568;DHT22;52211;50.154;8.682;2024-01-15T08:22:03;2.20;66.30
65568;DHT22;52211;50.154;8.682;2024-01-15T08:24:32;2.20;66.30
65568;DHT22;52211;50.154;8.682;2024-01-15T08:27:02;2.30;66.30
65568;DHT22;52211;50.154;8.682;2024-01-15T08:29:35;2.30;66.30
65568;DHT22;52211;50.154;8.682;2024-01-15T08:32:05;2.30;66.40
65568;DHT22;52211;50.154;8.682;2024-01-15T08:34:32;2.30;66.30
65568;DHT22;52211;50.154;8.682;2024-01-15T08:37:01;2.30;66.30
65568;DHT22;52211;50.154;8.682;2024-01-15T08:39:29;2.30;66.30
65568;DHT22;52211;50.154;8.682;2024-01-15T08:41:58;2.40;66.30
65568;DHT22;52211;50.154;8.682;2024-01-15T08:44:27;2.40;66.30
65568;DHT22;52211;50.154;8.682;2024-01-15T08:46:56;2.40;66.30
65568;DHT22;52211;50.154;8.682;2024-01-15T08:49:26;2.40;66.30
65568;DHT22;52211;50.154;8.682;2024-01-15T08:51:53;2.40;66.30
65568;DHT22;52211;50.154;8.682;2024-01-15T08:54:20;2.40;66.30
65568;DHT22;52211;50.154;8.682;2024-01-15T08:56:53;2.40;66.30
65568;DHT22;52211;50.154;8.682;2024-01-15T08:59:23;2.50;66.40
65568;DHT22;52211;50.154;8.682;2024-01-15T09:01:52;2.50;66.50
65568;DHT22;52211;50.154;8.682;2024-01-15T09:04:22;2.50;66.40
65568;DHT22;52211;50.154;8.682;2024-01-15T09:06:50;2.50;66.40
65568;DHT22;52211;50.154;8.682;2024-01-15T09:09:17;2.50;66.30
65568;DHT22;52211;50.154;8.682;2024-01-15T09:11:46;2.50;66.30
65568;DHT22;52211;50.154;8.682;2024-01-15T09:14:15;2.50;66.20
65568;DHT22;52211;50.154;8.682;2024-01-15T09:17:02;2.50;66.20
65568;DHT22;52211;50.154;8.682;2024-01-15T09:19:30;2.50;66.20
65568;DHT22;52211;50.154;8.682;2024-01-15T09:21:59;2.60;66.20
65568;DHT22;52211;50.154;8.682;2024-01-15T09:24:26;2.60;66.20
65568;DHT22;52211;50.154;8.682;2024-01-15T09:26:56;2.60;66.20
65568;DHT22;52211;50.154;8.682;2024-01-15T09:29:23;2.60;66.20
65568;DHT22;52211;50.154;8.682;2024-01-15T09:31:51;2.60;66.20
65568;DHT22;52211;50.154;8.682;2024-01-15T09:34:25;2.60;66.20
65568;DHT22;52211;50.154;8.682;2024-01-15T09:36:52;2.70;66.40
65568;DHT22;52211;50.154;8.682;2024-01-15T09:39:22;2.70;66.40
65568;DHT22;52211;50.154;8.682;2024-01-15T09:41:53;2.80;66.40
65568;DHT22;52211;50.154;8.682;2024-01-15T09:44:21;2.80;66.30
65568;DHT22;52211;50.154;8.682;2024-01-15T09:46:48;2.90;66.30
65568;DHT22;52211;50.154;8.682;2024-01-15T09:49:19;2.90;66.30
65568;DHT22;52211;50.154;8.682;2024-01-15T09:51:52;3.00;66.40
65568;DHT22;52211;50.154;8.682;2024-01-15T09:54:39;3.00;66.30
65568;DHT22;52211;50.154;8.682;2024-01-15T09:57:16;3.10;66.30
65568;DHT22;52211;50.154;8.682;2024-01-15T09:59:43;3.20;66.40
65568;DHT22;52211;50.154;8.682;2024-01-15T10:02:16;3.30;66.40
65568;DHT22;52211;50.154;8.682;2024-01-15T10:04:45;3.40;66.30
65568;DHT22;52211;50.154;8.682;2024-01-15T10:07:18;3.40;66.20
65568;DHT22;52211;50.154;8.682;2024-01-15T10:09:48;3.50;66.10
65568;DHT22;52211;50.154;8.682;2024-01-15T10:12:15;3.50;66.10
65568;DHT22;52211;50.154;8.682;2024-01-15T10:14:45;3.60;66.10
65568;DHT22;52211;50.154;8.682;2024-01-15T10:17:16;3.60;66.00
65568;DHT22;52211;50.154;8.682;2024-01-15T10:19:46;3.70;66.00
65568;DHT22;52211;50.154;8.682;2024-01-15T10:22:19;3.70;65.90
65568;DHT22;52211;50.154;8.682;2024-01-15T10:24:51;3.80;65.90
65568;DHT22;52211;50.154;8.682;2024-01-15T10:27:20;3.80;65.80
65568;DHT22;52211;50.154;8.682;2024-01-15T10:29:47;3.80;65.70
65568;DHT22;52211;50.154;8.682;2024-01-15T10:32:16;3.90;65.80
65568;DHT22;52211;50.154;8.682;2024-01-15T10:34:46;3.90;65.80
65568;DHT22;52211;50.154;8.682;2024-01-15T10:37:16;3.90;65.60
65568;DHT22;52211;50.154;8.682;2024-01-15T10:39:43;3.90;65.60
65568;DHT22;52211;50.154;8.682;2024-01-15T10:42:13;3.90;65.70
65568;DHT22;52211;50.154;8.682;2024-01-15T10:44:42;4.00;65.70
65568;DHT22;52211;50.154;8.682;2024-01-15T10:47:16;4.00;65.60
65568;DHT22;52211;50.154;8.682;2024-01-15T10:49:46;4.00;65.60
65568;DHT22;52211;50.154;8.682;2024-01-15T10:52:16;4.10;65.60
65568;DHT22;52211;50.154;8.682;2024-01-15T10:54:46;4.10;65.50
65568;DHT22;52211;50.154;8.682;2024-01-15T10:57:15;4.10;65.40
65568;DHT22;52211;50.154;8.682;2024-01-15T10:59:43;4.10;65.50
65568;DHT22;52211;50.154;8.682;2024-01-15T11:02:09;4.10;65.60
65568;DHT22;52211;50.154;8.682;2024-01-15T11:04:37;4.10;65.50
65568;DHT22;52211;50.154;8.682;2024-01-15T11:07:10;4.20;65.50
65568;DHT22;52211;50.154;8.682;2024-01-15T11:09:38;4.20;65.50
65568;DHT22;52211;50.154;8.682;2024-01-15T11:12:12;4.20;65.50
65568;DHT22;52211;50.154;8.682;2024-01-15T11:14:47;4.20;65.50
65568;DHT22;52211;50.154;8.682;2024-01-15T11:17:17;4.30;66.00
65568;DHT22;52211;50.154;8.682;2024-01-15T11:19:48;4.30;65.30
65568;DHT22;52211;50.154;8.682;2024-01-15T11:25:15;4.30;65.20
65568;DHT22;52211;50.154;8.682;2024-01-15T11:27:51;4.30;65.10
65568;DHT22;52211;50.154;8.682;2024-01-15T11:30:25;4.40;65.20
65568;DHT22;52211;50.154;8.682;2024-01-15T11:32:55;4.30;65.00
65568;DHT22;52211;50.154;8.682;2024-01-15T11:35:49;4.30;65.00
65568;DHT22;52211;50.154;8.682;2024-01-15T11:38:28;4.30;65.10
65568;DHT22;52211;50.154;8.682;2024-01-15T11:40:56;4.30;65.10
65568;DHT22;52211;50.154;8.682;2024-01-15T11:43:26;4.30;65.10
65568;DHT22;52211;50.154;8.682;2024-01-15T11:45:53;4.30;65.20
65568;DHT22;52211;50.154;8.682;2024-01-15T11:48:35;4.30;65.30
65568;DHT22;52211;50.154;8.682;2024-01-15T11:51:11;4.30;65.30
65568;DHT22;52211;50.154;8.682;2024-01-15T11:53:45;4.40;65.40
65568;DHT22;52211;50.154;8.682;2024-01-15T11:56:19;4.40;65.40
65568;DHT22;52211;50.154;8.682;2024-01-15T11:58:52;4.40;65.50
65568;DHT22;52211;50.154;8.682;2024-01-15T12:01:21;4.50;65.50
65568;DHT22;52211;50.154;8.682;2024-01-15T12:03:48;4.50;65.40
65568;DHT22;52211;50.154;8.682;2024-01-15T12:06:15;4.60;65.40
65568;DHT22;52211;50.154;8.682;2024-01-15T12:08:44;4.70;65.20
65568;DHT22;52211;50.154;8.682;2024-01-15T12:11:14;4.70;65.20
65568;DHT22;52211;50.154;8.682;2024-01-15T12:13:44;4.70;65.20
65568;DHT22;52211;50.154;8.682;2024-01-15T12:16:14;4.70;65.20
65568;DHT22;52211;50.154;8.682;2024-01-15T12:18:43;4.70;65.30
65568;DHT22;52211;50.154;8.682;2024-01-15T12:21:15;4.70;65.20
65568;DHT22;52211;50.154;8.682;2024-01-15T12:23:46;4.70;65.30
65568;DHT22;52211;50.154;8.682;2024-01-15T12:26:15;4.90;65.40
65568;DHT22;52211;50.154;8.682;2024-01-15T12:28:42;4.90;65.30
65568;DHT22;52211;50.154;8.682;2024-01-15T12:31:09;4.90;65.20
65568;DHT22;52211;50.154;8.682;2024-01-15T12:33:38;4.90;65.20
65568;DHT22;52211;50.154;8.682;2024-01-15T12:36:08;4.90;65.10
65568;DHT22;52211;50.154;8.682;2024-01-15T12:38:35;5.00;65.20
65568;DHT22;52211;50.154;8.682;2024-01-15T12:41:09;5.00;65.10
65568;DHT22;52211;50.154;8.682;2024-01-15T12:43:38;5.00;65.10
65568;DHT22;52211;50.154;8.682;2024-01-15T12:46:08;5.00;65.00
65568;DHT22;52211;50.154;8.682;2024-01-15T12:48:37;5.00;65.00
65568;DHT22;52211;50.154;8.682;2024-01-15T12:51:06;5.00;65.10
65568;DHT22;52211;50.154;8.682;2024-01-15T12:53:35;5.00;65.10
65568;DHT22;52211;50.154;8.682;2024-01-15T12:56:02;5.00;65.20
65568;DHT22;52211;50.154;8.682;2024-01-15T12:58:31;5.10;65.20
65568;DHT22;52211;50.154;8.682;2024-01-15T13:00:58;5.10;65.10
65568;DHT22;52211;50.154;8.682;2024-01-15T13:03:26;5.10;65.10
65568;DHT22;52211;50.154;8.682;2024-01-15T13:05:55;5.10;65.00
65568;DHT22;52211;50.154;8.682;2024-01-15T13:08:24;5.20;65.10
65568;DHT22;52211;50.154;8.682;2024-01-15T13:10:56;5.20;65.20
65568;DHT22;52211;50.154;8.682;2024-01-15T13:13:26;5.30;65.40
65568;DHT22;52211;50.154;8.682;2024-01-15T13:15:56;5.40;65.70
65568;DHT22;52211;50.154;8.682;2024-01-15T13:18:27;5.60;65.40
65568;DHT22;52211;50.154;8.682;2024-01-15T13:20:57;5.70;65.20
65568;DHT22;52211;50.154;8.682;2024-01-15T13:23:24;5.70;64.90
65568;DHT22;52211;50.154;8.682;2024-01-15T13:25:53;5.80;64.70
65568;DHT22;52211;50.154;8.682;2024-01-15T13:28:25;5.70;64.40
65568;DHT22;52211;50.154;8.682;2024-01-15T13:30:57;5.70;64.30
65568;DHT22;52211;50.154;8.682;2024-01-15T13:33:24;5.70;64.90
65568;DHT22;52211;50.154;8.682;2024-01-15T13:35:51;5.70;64.30
65568;DHT22;52211;50.154;8.682;2024-01-15T13:38:18;5.60;64.30
65568;DHT22;52211;50.154;8.682;2024-01-15T13:40:45;5.60;64.30
65568;DHT22;52211;50.154;8.682;2024-01-15T13:43:17;5.60;64.30
65568;DHT22;52211;50.154;8.682;2024-01-15T13:45:45;5.60;64.40
65568;DHT22;52211;50.154;8.682;2024-01-15T13:48:14;5.50;64.30
65568;DHT22;52211;50.154;8.682;2024-01-15T13:50:41;5.50;64.40
65568;DHT22;52211;50.154;8.682;2024-01-15T13:53:10;5.50;64.40
65568;DHT22;52211;50.154;8.682;2024-01-15T13:55:37;5.50;64.40
65568;DHT22;52211;50.154;8.682;2024-01-15T13:58:06;5.50;64.40
65568;DHT22;52211;50.154;8.682;2024-01-15T14:00:33;5.50;64.40
